Time;durP1;ratioP1;P1;durP2;ratioP2;P2;SDS_P1;SDS_P2;PMS_P1;PMS_P2;Temp;Humidity;BMP_temperature;BMP_pressure;BME280_temperature;BME280_humidity;BME280_pressure;Samples;Min_cycle;Max_cycle;Signal;HPM_P1;HPM_P2
2021/11/29 00:00:44;;;;;;;2.70;2.50;;;2.30;99.90;;;;;;5052880;28;20186;-44
2021/11/29 00:03:12;;;;;;;2.67;2.47;;;2.30;99.90;;;;;;5053484;28;20171;-44
2021/11/29 00:05:38;;;;;;;2.43;2.17;;;2.30;99.90;;;;;;5052738;28;20571;-43
2021/11/29 00:08:04;;;;;;;2.27;1.97;;;2.30;99.90;;;;;;5035247;28;20434;-45
2021/11/29 00:10:31;;;;;;;2.50;2.30;;;2.30;99.90;;;;;;5052987;28;20206;-52
2021/11/29 00:12:57;;;;;;;2.40;2.20;;;2.30;99.90;;;;;;5052880;28;20829;-47
2021/11/29 00:15:24;;;;;;;2.57;2.37;;;2.30;99.90;;;;;;5052511;28;20429;-49
2021/11/29 00:17:50;;;;;;;4.47;2.50;;;2.30;99.90;;;;;;5052796;28;20586;-43
2021/11/29 00:20:16;;;;;;;3.37;2.50;;;2.40;99.90;;;;;;5052996;28;20258;-47
2021/11/29 00:22:42;;;;;;;2.90;2.50;;;2.40;99.90;;;;;;5052679;28;20178;-42
2021/11/29 00:25:09;;;;;;;2.67;2.20;;;2.40;99.90;;;;;;5051910;28;20525;-46
2021/11/29 00:27:35;;;;;;;2.70;2.43;;;2.40;99.90;;;;;;5052275;28;20269;-45
2021/11/29 00:30:01;;;;;;;2.83;2.53;;;2.40;99.90;;;;;;5052834;28;20214;-44
2021/11/29 00:32:26;;;;;;;2.67;2.47;;;2.30;99.90;;;;;;5052527;28;20413;-44
2021/11/29 00:34:52;;;;;;;3.17;2.83;;;2.30;99.90;;;;;;5034574;28;20233;-43
2021/11/29 00:37:18;;;;;;;3.70;2.80;;;2.30;99.90;;;;;;5052668;28;20195;-43
2021/11/29 00:39:43;;;;;;;2.83;2.53;;;2.30;99.90;;;;;;5052394;28;20214;-45
2021/11/29 00:42:10;;;;;;;3.17;2.87;;;2.30;99.90;;;;;;5052575;28;20228;-46
2021/11/29 00:44:36;;;;;;;3.17;2.87;;;2.30;99.90;;;;;;5052110;28;20171;-46
2021/11/29 00:47:02;;;;;;;3.30;2.50;;;2.20;99.90;;;;;;5052465;28;20285;-50
2021/11/29 00:49:27;;;;;;;3.00;2.70;;;2.20;99.90;;;;;;5052079;28;20382;-44
2021/11/29 00:51:53;;;;;;;3.60;3.07;;;2.20;99.90;;;;;;5052496;28;20493;-47
2021/11/29 00:54:19;;;;;;;4.30;3.20;;;2.20;99.90;;;;;;5052325;28;20330;-44
2021/11/29 00:56:44;;;;;;;3.00;2.70;;;2.20;99.90;;;;;;5051758;28;20191;-43
2021/11/29 00:59:10;;;;;;;3.10;2.80;;;2.20;99.90;;;;;;5052210;28;20186;-45
2021/11/29 01:01:36;;;;;;;3.23;2.93;;;2.30;99.90;;;;;;5051677;28;20258;-45
2021/11/29 01:04:03;;;;;;;2.80;2.50;;;2.30;99.90;;;;;;5052044;28;20179;-45
2021/11/29 01:06:28;;;;;;;4.27;3.10;;;2.30;99.90;;;;;;5051748;28;20624;-47
2021/11/29 01:08:54;;;;;;;3.10;2.80;;;2.30;99.90;;;;;;5052106;28;20549;-47
2021/11/29 01:11:19;;;;;;;3.20;2.80;;;2.30;99.90;;;;;;5051521;28;20175;-47
2021/11/29 01:13:45;;;;;;;3.50;2.90;;;2.30;99.90;;;;;;5051568;28;20653;-45
2021/11/29 01:16:10;;;;;;;3.03;2.73;;;2.30;99.90;;;;;;5051342;28;20569;-49
2021/11/29 01:18:37;;;;;;;2.80;2.60;;;2.30;99.90;;;;;;5051690;28;20179;-46
2021/11/29 01:21:03;;;;;;;3.53;2.90;;;2.30;99.90;;;;;;5052038;28;20602;-43
2021/11/29 01:23:29;;;;;;;3.63;3.00;;;2.40;99.90;;;;;;5051661;28;20437;-49
2021/11/29 01:25:55;;;;;;;3.10;2.80;;;2.40;99.90;;;;;;5051307;28;20601;-43
2021/11/29 01:28:22;;;;;;;3.47;3.00;;;2.40;99.90;;;;;;5051489;28;20195;-46
2021/11/29 01:30:48;;;;;;;4.27;3.20;;;2.40;99.90;;;;;;5051987;28;20178;-49
2021/11/29 01:33:13;;;;;;;3.77;3.17;;;2.40;99.90;;;;;;5051625;28;20630;-47
2021/11/29 01:35:39;;;;;;;3.53;2.97;;;2.40;99.90;;;;;;5050899;28;20191;-43
2021/11/29 01:38:05;;;;;;;2.80;2.60;;;2.40;99.90;;;;;;5051530;28;20175;-43
2021/11/29 01:40:31;;;;;;;3.23;2.90;;;2.40;99.90;;;;;;5051476;28;20523;-47
2021/11/29 01:43:02;;;;;;;3.57;2.77;;;2.40;99.90;;;;;;5051850;28;20179;-41
2021/11/29 01:45:29;;;;;;;3.40;3.10;;;2.50;99.90;;;;;;5050960;28;20202;-47
2021/11/29 01:47:55;;;;;;;2.90;2.40;;;2.50;99.90;;;;;;5051622;28;20225;-47
2021/11/29 01:50:21;;;;;;;3.20;2.90;;;2.50;99.90;;;;;;5051196;28;20526;-48
2021/11/29 01:52:47;;;;;;;3.43;2.80;;;2.50;99.90;;;;;;5051570;28;20175;-45
2021/11/29 01:55:13;;;;;;;3.23;2.93;;;2.50;99.90;;;;;;5033054;28;20194;-49
2021/11/29 01:57:38;;;;;;;4.10;3.20;;;2.50;99.90;;;;;;5051532;28;20820;-45
2021/11/29 02:00:07;;;;;;;3.23;2.90;;;2.40;99.90;;;;;;5051384;28;20210;-50
2021/11/29 02:02:34;;;;;;;3.77;2.90;;;2.40;99.90;;;;;;5051307;28;20588;-43
2021/11/29 02:04:59;;;;;;;3.20;2.90;;;2.40;99.90;;;;;;5051167;28;20175;-44
2021/11/29 02:07:27;;;;;;;3.30;3.00;;;2.40;99.90;;;;;;5050967;28;20249;-47
2021/11/29 02:09:52;;;;;;;3.07;2.77;;;2.40;99.90;;;;;;5051369;28;20191;-49
2021/11/29 02:12:19;;;;;;;3.17;2.87;;;2.50;99.90;;;;;;5051138;28;20405;-45
2021/11/29 02:14:47;;;;;;;3.53;3.07;;;2.40;99.90;;;;;;5033313;28;20171;-46
2021/11/29 02:17:14;;;;;;;3.57;3.20;;;2.50;99.90;;;;;;5050926;28;20658;-47
2021/11/29 02:19:44;;;;;;;2.90;2.70;;;2.50;99.90;;;;;;5051219;28;20981;-45
2021/11/29 02:22:10;;;;;;;3.23;2.87;;;2.50;99.90;;;;;;5051237;28;20657;-45
2021/11/29 02:24:36;;;;;;;3.47;3.10;;;2.50;99.90;;;;;;5050839;28;20445;-51
2021/11/29 02:27:03;;;;;;;3.37;2.83;;;2.50;99.90;;;;;;5051094;28;20207;-50
2021/11/29 02:29:28;;;;;;;3.33;2.90;;;2.50;99.90;;;;;;5052155;28;20203;-46
2021/11/29 02:31:54;;;;;;;3.07;2.77;;;2.50;99.90;;;;;;5051322;28;20641;-43
2021/11/29 02:34:23;;;;;;;3.97;3.10;;;2.60;99.90;;;;;;5050893;28;20656;-48
2021/11/29 02:36:50;;;;;;;2.73;2.53;;;2.60;99.90;;;;;;5050767;28;20215;-47
2021/11/29 02:39:17;;;;;;;3.87;3.17;;;2.60;99.90;;;;;;5050853;28;20281;-47
2021/11/29 02:41:44;;;;;;;4.50;3.53;;;2.60;99.90;;;;;;5051267;28;20221;-47
2021/11/29 02:44:10;;;;;;;3.90;2.97;;;2.60;99.90;;;;;;5050992;28;20167;-47
2021/11/29 02:46:36;;;;;;;3.57;3.00;;;2.60;99.90;;;;;;5051021;28;20674;-42
2021/11/29 02:49:03;;;;;;;4.17;3.53;;;2.60;99.90;;;;;;5054799;28;20459;-42
2021/11/29 02:51:39;;;;;;;3.83;3.23;;;2.60;99.90;;;;;;5053741;28;20166;-43
2021/11/29 02:54:21;;;;;;;4.00;3.40;;;2.60;99.90;;;;;;5054111;28;20178;-41
2021/11/29 02:56:49;;;;;;;3.33;3.00;;;2.60;99.90;;;;;;5037740;28;20186;-46
2021/11/29 02:59:18;;;;;;;3.37;3.07;;;2.60;99.90;;;;;;5054014;28;20179;-46
2021/11/29 03:01:46;;;;;;;3.77;3.20;;;2.60;99.90;;;;;;5053978;28;20175;-45
2021/11/29 03:04:12;;;;;;;3.23;2.93;;;2.60;99.90;;;;;;5054831;28;20585;-41
2021/11/29 03:06:38;;;;;;;3.40;3.00;;;2.60;99.90;;;;;;5053878;28;20183;-43
2021/11/29 03:09:07;;;;;;;3.33;3.00;;;2.60;99.90;;;;;;5054296;28;20199;-45
2021/11/29 03:11:34;;;;;;;3.80;3.33;;;2.60;99.90;;;;;;5054240;28;20186;-44
2021/11/29 03:14:00;;;;;;;3.27;2.93;;;2.60;99.90;;;;;;5054157;28;20254;-42
2021/11/29 03:16:25;;;;;;;3.37;3.00;;;2.60;99.90;;;;;;5053854;28;20275;-44
2021/11/29 03:18:51;;;;;;;3.13;2.73;;;2.70;99.90;;;;;;5053732;28;20176;-41
2021/11/29 03:21:19;;;;;;;3.63;3.10;;;2.70;99.90;;;;;;5054269;28;20223;-48
2021/11/29 03:23:47;;;;;;;3.63;2.90;;;2.60;99.90;;;;;;5053374;28;20649;-42
2021/11/29 03:26:18;;;;;;;3.73;2.90;;;2.60;99.90;;;;;;5053407;28;20276;-43
2021/11/29 03:28:47;;;;;;;4.23;3.30;;;2.60;99.90;;;;;;5053579;28;20183;-46
2021/11/29 03:31:13;;;;;;;3.20;2.67;;;2.60;99.90;;;;;;5053717;28;20254;-44
2021/11/29 03:33:41;;;;;;;3.60;3.10;;;2.70;99.90;;;;;;5053851;28;20167;-45
2021/11/29 03:36:07;;;;;;;3.73;3.33;;;2.60;99.90;;;;;;5053452;28;20273;-48
2021/11/29 03:38:33;;;;;;;3.17;2.87;;;2.70;99.90;;;;;;5053919;28;20414;-43
2021/11/29 03:40:59;;;;;;;4.20;2.90;;;2.60;99.90;;;;;;5053609;28;20182;-44
2021/11/29 03:43:25;;;;;;;3.20;2.90;;;2.60;99.90;;;;;;5035895;28;20175;-44
2021/11/29 03:45:51;;;;;;;3.13;2.73;;;2.70;99.90;;;;;;5052984;28;20616;-42
2021/11/29 03:48:18;;;;;;;3.23;2.93;;;2.60;99.90;;;;;;5053606;28;20182;-44
2021/11/29 03:50:44;;;;;;;3.27;2.97;;;2.60;99.90;;;;;;5053346;28;20168;-41
2021/11/29 03:53:09;;;;;;;3.67;3.27;;;2.60;99.90;;;;;;5053734;28;20178;-41
2021/11/29 03:55:35;;;;;;;3.23;2.93;;;2.60;99.90;;;;;;5053136;28;20191;-43
2021/11/29 03:58:00;;;;;;;3.70;2.80;;;2.70;99.90;;;;;;5052731;28;20171;-42
2021/11/29 04:00:26;;;;;;;4.00;2.80;;;2.60;99.90;;;;;;5053100;28;20175;-41
2021/11/29 04:02:52;;;;;;;3.10;2.80;;;2.60;99.90;;;;;;5053206;28;20216;-42
2021/11/29 04:05:18;;;;;;;3.47;3.10;;;2.60;99.90;;;;;;5053008;28;20206;-45
2021/11/29 04:07:44;;;;;;;3.83;3.17;;;2.60;99.90;;;;;;5052962;28;20175;-42
2021/11/29 04:10:10;;;;;;;3.20;2.90;;;2.60;99.90;;;;;;5053287;28;20228;-41
2021/11/29 04:12:36;;;;;;;3.33;3.00;;;2.60;99.90;;;;;;5052906;28;20256;-48
2021/11/29 04:15:03;;;;;;;3.50;3.00;;;2.60;99.90;;;;;;5052804;28;20202;-41
2021/11/29 04:17:28;;;;;;;3.83;3.30;;;2.70;99.90;;;;;;5053113;28;20168;-46
2021/11/29 04:19:54;;;;;;;3.17;2.87;;;2.70;99.90;;;;;;5052862;28;20181;-42
2021/11/29 04:22:20;;;;;;;3.50;3.20;;;2.70;99.90;;;;;;5053070;28;20182;-41
2021/11/29 04:24:47;;;;;;;3.13;2.77;;;2.60;99.90;;;;;;5052432;28;20178;-41
2021/11/29 04:27:12;;;;;;;3.77;3.10;;;2.60;99.90;;;;;;5052743;28;20207;-42
2021/11/29 04:29:42;;;;;;;3.10;2.80;;;2.60;99.90;;;;;;5052536;28;20198;-44
2021/11/29 04:32:08;;;;;;;3.57;2.93;;;2.60;99.90;;;;;;5052815;28;20164;-44
2021/11/29 04:34:35;;;;;;;3.67;3.27;;;2.60;99.90;;;;;;5052424;28;20171;-43
2021/11/29 04:37:04;;;;;;;4.47;3.40;;;2.60;99.90;;;;;;5052657;28;20685;-42
2021/11/29 04:39:30;;;;;;;4.33;3.50;;;2.60;99.90;;;;;;5052680;28;20777;-43
2021/11/29 04:41:56;;;;;;;4.10;3.20;;;2.60;99.90;;;;;;5051820;28;20174;-48
2021/11/29 04:44:22;;;;;;;4.90;2.90;;;2.60;99.90;;;;;;5052638;28;20168;-42
2021/11/29 04:46:47;;;;;;;2.97;2.70;;;2.60;99.90;;;;;;5051839;28;20277;-41
2021/11/29 04:49:13;;;;;;;2.90;2.60;;;2.60;99.90;;;;;;5052410;28;20244;-44
2021/11/29 04:51:39;;;;;;;3.03;2.67;;;2.60;99.90;;;;;;5052034;28;20259;-50
2021/11/29 04:54:04;;;;;;;3.17;2.80;;;2.60;99.90;;;;;;5052450;28;20515;-41
2021/11/29 04:56:31;;;;;;;3.20;2.90;;;2.60;99.90;;;;;;5052143;28;20199;-44
2021/11/29 04:58:56;;;;;;;3.87;2.77;;;2.60;99.90;;;;;;5052173;28;20182;-49
2021/11/29 05:01:23;;;;;;;3.90;3.50;;;2.60;99.90;;;;;;5052150;28;20175;-43
2021/11/29 05:03:49;;;;;;;3.63;2.87;;;2.60;99.90;;;;;;5051735;28;20168;-44
2021/11/29 05:06:14;;;;;;;4.23;3.37;;;2.60;99.90;;;;;;5051681;28;20195;-44
2021/11/29 05:08:40;;;;;;;3.97;3.07;;;2.70;99.90;;;;;;5051844;28;20225;-42
2021/11/29 05:11:06;;;;;;;3.13;2.70;;;2.70;99.90;;;;;;5052156;28;20167;-42
2021/11/29 05:13:32;;;;;;;3.00;2.70;;;2.70;99.90;;;;;;5051778;28;20312;-45
2021/11/29 05:15:58;;;;;;;3.70;2.90;;;2.70;99.90;;;;;;5051592;28;20735;-49
2021/11/29 05:18:23;;;;;;;3.00;2.70;;;2.70;99.90;;;;;;5051862;28;20210;-44
2021/11/29 05:20:50;;;;;;;3.10;2.80;;;2.70;99.90;;;;;;5051763;28;20183;-47
2021/11/29 05:23:16;;;;;;;3.30;2.70;;;2.70;99.90;;;;;;5051847;28;20352;-44
2021/11/29 05:25:43;;;;;;;3.50;2.57;;;2.70;99.90;;;;;;5051017;28;20203;-46
2021/11/29 05:28:08;;;;;;;2.93;2.50;;;2.70;99.90;;;;;;5051855;28;20171;-44
2021/11/29 05:30:34;;;;;;;2.87;2.57;;;2.70;99.90;;;;;;5051447;28;20182;-44
2021/11/29 05:33:00;;;;;;;3.17;2.87;;;2.70;99.90;;;;;;5051870;28;20245;-43
2021/11/29 05:35:26;;;;;;;3.67;3.13;;;2.70;99.90;;;;;;5050898;28;20282;-48
2021/11/29 05:37:51;;;;;;;2.93;2.60;;;2.70;99.90;;;;;;5051621;28;20163;-43
2021/11/29 05:40:17;;;;;;;3.53;2.70;;;2.70;99.90;;;;;;5051633;28;20175;-41
2021/11/29 05:42:44;;;;;;;3.20;2.80;;;2.70;99.90;;;;;;5051348;28;20171;-48
2021/11/29 05:45:11;;;;;;;3.07;2.73;;;2.70;99.90;;;;;;5051122;28;20175;-42
2021/11/29 05:47:36;;;;;;;3.87;3.00;;;2.70;99.90;;;;;;5051127;28;20641;-50
2021/11/29 05:50:05;;;;;;;3.73;3.00;;;2.70;99.90;;;;;;5051498;28;20209;-43
2021/11/29 05:52:30;;;;;;;3.10;2.80;;;2.70;99.90;;;;;;5051184;28;20257;-47
2021/11/29 05:54:56;;;;;;;3.27;2.90;;;2.70;99.90;;;;;;5051313;28;20203;-46
2021/11/29 05:57:21;;;;;;;3.20;2.90;;;2.70;99.90;;;;;;5051086;28;20179;-43
2021/11/29 05:59:47;;;;;;;3.27;2.93;;;2.60;99.90;;;;;;5051141;28;20627;-48
2021/11/29 06:02:13;;;;;;;2.80;2.60;;;2.60;99.90;;;;;;5050618;28;20185;-47
2021/11/29 06:04:38;;;;;;;3.23;2.93;;;2.60;99.90;;;;;;5050654;28;20171;-43
2021/11/29 06:07:04;;;;;;;2.77;2.57;;;2.60;99.90;;;;;;5051125;28;20317;-44
2021/11/29 06:09:29;;;;;;;3.33;2.70;;;2.60;99.90;;;;;;5050797;28;20673;-43
2021/11/29 06:11:55;;;;;;;3.43;2.90;;;2.60;99.90;;;;;;5051277;28;20189;-47
2021/11/29 06:14:21;;;;;;;3.57;2.80;;;2.60;99.90;;;;;;5051187;28;20181;-49
2021/11/29 06:16:46;;;;;;;3.80;2.77;;;2.50;99.90;;;;;;5032655;28;20206;-43
2021/11/29 06:19:12;;;;;;;3.33;3.00;;;2.50;99.90;;;;;;5050931;28;20175;-43
2021/11/29 06:21:37;;;;;;;3.47;2.80;;;2.50;99.90;;;;;;5051653;28;20198;-45
2021/11/29 06:24:04;;;;;;;2.90;2.60;;;2.50;99.90;;;;;;5054903;28;20553;-44
2021/11/29 06:26:29;;;;;;;3.10;2.73;;;2.50;99.90;;;;;;5054241;28;20203;-48
2021/11/29 06:28:55;;;;;;;3.60;2.87;;;2.50;99.90;;;;;;5054920;28;20202;-48
2021/11/29 06:31:21;;;;;;;3.43;3.10;;;2.50;99.90;;;;;;5054596;28;20194;-49
2021/11/29 06:33:46;;;;;;;3.20;2.83;;;2.40;99.90;;;;;;5054891;28;20172;-50
2021/11/29 06:36:12;;;;;;;3.00;2.70;;;2.40;99.90;;;;;;5054038;28;20187;-46
2021/11/29 06:38:38;;;;;;;3.30;2.87;;;2.40;99.90;;;;;;5054844;28;20170;-46
2021/11/29 06:41:04;;;;;;;3.60;2.90;;;2.40;99.90;;;;;;5054733;28;20175;-49
2021/11/29 06:43:30;;;;;;;3.63;3.10;;;2.40;99.90;;;;;;5054572;28;20182;-47
2021/11/29 06:45:55;;;;;;;3.57;3.27;;;2.40;99.90;;;;;;5054323;28;20437;-45
2021/11/29 06:48:22;;;;;;;3.30;3.00;;;2.40;99.90;;;;;;5053863;28;20634;-45
2021/11/29 06:50:49;;;;;;;3.67;3.00;;;2.40;99.90;;;;;;5054232;28;20164;-46
2021/11/29 06:53:15;;;;;;;4.50;3.43;;;2.40;99.90;;;;;;5054144;28;20402;-42
2021/11/29 06:55:42;;;;;;;3.70;3.30;;;2.40;99.90;;;;;;5054230;28;20205;-48
2021/11/29 06:58:07;;;;;;;3.70;3.10;;;2.40;99.90;;;;;;5054157;28;20164;-47
2021/11/29 07:00:33;;;;;;;3.80;3.20;;;2.40;99.90;;;;;;5054492;28;20970;-45
2021/11/29 07:02:59;;;;;;;3.13;2.83;;;2.50;99.90;;;;;;5054065;28;20568;-48
2021/11/29 07:05:27;;;;;;;3.30;2.50;;;2.50;99.90;;;;;;5053118;28;20520;-47
2021/11/29 07:07:53;;;;;;;3.30;2.70;;;2.50;99.90;;;;;;5054510;28;20174;-40
2021/11/29 07:10:20;;;;;;;3.40;2.63;;;2.50;99.90;;;;;;5036249;28;20569;-44
2021/11/29 07:12:47;;;;;;;4.63;3.50;;;2.50;99.90;;;;;;5054352;28;20175;-40
2021/11/29 07:15:13;;;;;;;3.77;3.03;;;2.60;99.90;;;;;;5036107;28;20647;-45
2021/11/29 07:17:40;;;;;;;4.17;3.20;;;2.60;99.90;;;;;;5054140;28;20174;-46
2021/11/29 07:20:07;;;;;;;3.13;2.70;;;2.70;99.90;;;;;;5053908;28;20726;-44
2021/11/29 07:22:32;;;;;;;3.47;3.00;;;2.70;99.90;;;;;;5054194;28;20175;-44
2021/11/29 07:25:03;;;;;;;3.47;3.17;;;2.80;99.90;;;;;;5036143;28;20179;-47
2021/11/29 07:27:29;;;;;;;4.37;3.80;;;2.80;99.90;;;;;;5053950;28;20678;-47
2021/11/29 07:29:55;;;;;;;4.37;3.37;;;2.80;99.90;;;;;;5053989;28;20562;-45
2021/11/29 07:32:22;;;;;;;3.37;3.07;;;2.80;99.90;;;;;;5053575;28;20174;-42
2021/11/29 07:34:48;;;;;;;3.53;3.10;;;2.80;99.90;;;;;;5052452;28;20262;-48
2021/11/29 07:37:19;;;;;;;3.83;3.43;;;2.80;99.90;;;;;;5053635;28;20195;-42
2021/11/29 07:39:46;;;;;;;3.80;3.20;;;2.80;99.90;;;;;;5053987;28;20246;-50
2021/11/29 07:42:11;;;;;;;3.53;3.20;;;2.90;99.90;;;;;;5053686;28;20202;-43
2021/11/29 07:44:37;;;;;;;4.07;3.37;;;2.80;99.90;;;;;;5053676;28;20665;-40
2021/11/29 07:47:03;;;;;;;4.10;2.87;;;2.90;99.90;;;;;;5035699;28;20195;-45
2021/11/29 07:49:29;;;;;;;4.67;3.70;;;2.90;99.90;;;;;;5053309;28;20265;-41
2021/11/29 07:51:55;;;;;;;3.87;3.00;;;4.10;99.90;;;;;;5053737;28;20565;-44
2021/11/29 07:54:20;;;;;;;4.77;3.63;;;2.90;99.90;;;;;;5053307;28;20258;-43
2021/11/29 07:56:46;;;;;;;4.07;3.40;;;3.00;99.90;;;;;;5053314;28;20190;-46
2021/11/29 07:59:12;;;;;;;3.40;3.07;;;3.00;99.90;;;;;;5053500;28;20175;-41
2021/11/29 08:01:38;;;;;;;3.97;3.20;;;3.00;99.90;;;;;;5053336;28;20685;-45
2021/11/29 08:04:03;;;;;;;5.00;2.90;;;3.00;99.90;;;;;;5053104;28;20175;-42
2021/11/29 08:06:29;;;;;;;3.80;2.80;;;3.00;99.90;;;;;;5053146;28;20203;-44
2021/11/29 08:08:55;;;;;;;3.90;2.73;;;3.00;99.90;;;;;;5053329;28;20206;-42
2021/11/29 08:11:21;;;;;;;3.03;2.73;;;3.10;99.90;;;;;;5053156;28;20178;-47
2021/11/29 08:13:47;;;;;;;3.40;3.07;;;3.10;99.90;;;;;;5053313;28;20195;-44
2021/11/29 08:16:13;;;;;;;3.80;3.20;;;3.20;99.90;;;;;;5052449;28;20223;-44
2021/11/29 08:18:39;;;;;;;4.33;3.50;;;3.20;99.90;;;;;;5053125;28;20703;-45
2021/11/29 08:21:04;;;;;;;4.80;3.90;;;3.20;99.90;;;;;;5052883;28;20170;-45
2021/11/29 08:23:30;;;;;;;4.37;3.77;;;3.30;99.90;;;;;;5053121;28;20254;-43
2021/11/29 08:25:56;;;;;;;4.57;4.10;;;3.30;99.90;;;;;;5052428;28;20257;-43
2021/11/29 08:28:21;;;;;;;5.17;4.17;;;3.30;99.90;;;;;;5052936;28;20693;-49
2021/11/29 08:30:48;;;;;;;6.53;4.60;;;3.30;99.90;;;;;;5080948;23;20273;-50
2021/11/29 08:33:14;;;;;;;6.90;5.37;;;3.30;99.90;;;;;;5028742;28;20555;-52
2021/11/29 08:35:41;;;;;;;7.33;5.73;;;3.40;99.90;;;;;;5032220;28;20176;-52
2021/11/29 08:38:07;;;;;;;9.87;6.10;;;3.40;99.90;;;;;;5032238;28;20175;-52
2021/11/29 08:40:34;;;;;;;7.00;5.30;;;3.40;99.90;;;;;;5023845;28;20643;-53
2021/11/29 08:43:08;;;;;;;6.73;5.57;;;3.50;99.90;;;;;;5012356;28;20173;-51
2021/11/29 08:45:35;;;;;;;5.13;4.43;;;3.50;99.90;;;;;;5012207;28;20252;-52
2021/11/29 08:48:02;;;;;;;5.47;4.53;;;3.50;99.90;;;;;;5008176;28;20177;-52
2021/11/29 08:50:28;;;;;;;5.07;4.40;;;3.50;99.90;;;;;;5008101;28;20212;-50
2021/11/29 08:52:54;;;;;;;5.50;4.40;;;3.50;99.90;;;;;;5012806;28;20172;-48
2021/11/29 08:55:20;;;;;;;4.43;3.90;;;3.50;99.90;;;;;;5012251;28;20256;-51
2021/11/29 08:57:45;;;;;;;5.13;4.10;;;3.50;99.90;;;;;;5012704;28;20223;-51
2021/11/29 09:00:16;;;;;;;5.67;4.70;;;3.50;99.90;;;;;;5012285;28;20216;-47
2021/11/29 09:02:42;;;;;;;4.57;4.03;;;3.50;99.90;;;;;;5012716;28;20263;-51
2021/11/29 09:05:09;;;;;;;5.07;4.10;;;3.60;99.90;;;;;;5012517;28;20184;-46
2021/11/29 09:07:35;;;;;;;4.93;4.07;;;3.60;99.90;;;;;;5011946;28;20691;-50
2021/11/29 09:10:02;;;;;;;4.97;4.03;;;3.60;99.90;;;;;;5011633;28;20211;-48
2021/11/29 09:12:28;;;;;;;4.87;4.10;;;3.60;99.90;;;;;;5012072;28;20165;-50
2021/11/29 09:14:54;;;;;;;4.93;4.13;;;3.60;99.90;;;;;;5012068;28;20234;-51
2021/11/29 09:17:20;;;;;;;5.13;4.03;;;3.70;99.90;;;;;;5012108;28;20172;-50
2021/11/29 09:19:45;;;;;;;6.07;4.93;;;3.70;99.90;;;;;;5012334;28;20832;-43
2021/11/29 09:22:11;;;;;;;5.57;4.40;;;3.70;99.90;;;;;;5012119;28;20157;-51
2021/11/29 09:24:37;;;;;;;6.47;4.60;;;3.70;99.90;;;;;;5011370;28;20256;-48
2021/11/29 09:27:03;;;;;;;3.97;3.50;;;3.70;99.90;;;;;;5011516;28;20184;-47
2021/11/29 09:29:29;;;;;;;4.53;3.67;;;3.70;99.90;;;;;;5011795;28;20214;-47
2021/11/29 09:31:56;;;;;;;3.73;3.33;;;3.70;99.90;;;;;;5012146;28;20228;-45
2021/11/29 09:34:22;;;;;;;4.03;3.37;;;3.70;99.90;;;;;;5011793;28;20168;-47
2021/11/29 09:36:47;;;;;;;5.80;3.93;;;3.80;99.90;;;;;;5011900;28;20175;-50
2021/11/29 09:39:13;;;;;;;3.30;2.97;;;3.90;99.90;;;;;;5012204;28;20231;-48
2021/11/29 09:41:39;;;;;;;3.97;3.17;;;3.90;99.90;;;;;;5011696;28;20207;-45
2021/11/29 09:44:05;;;;;;;3.63;3.30;;;4.00;99.90;;;;;;5012031;28;20176;-43
2021/11/29 09:46:32;;;;;;;3.30;3.00;;;4.10;99.90;;;;;;5011621;28;20196;-52
2021/11/29 09:49:01;;;;;;;3.20;2.90;;;4.20;99.90;;;;;;5011744;28;20196;-51
2021/11/29 09:51:27;;;;;;;3.70;3.30;;;4.30;99.90;;;;;;5011163;28;20184;-44
2021/11/29 09:53:53;;;;;;;3.70;3.30;;;4.40;99.90;;;;;;5011810;28;20179;-52
2021/11/29 09:56:18;;;;;;;3.23;2.93;;;4.60;99.90;;;;;;5010914;28;20172;-49
2021/11/29 09:58:47;;;;;;;4.50;3.70;;;4.80;99.90;;;;;;5011607;28;20551;-53
2021/11/29 10:01:16;;;;;;;4.37;3.80;;;4.80;99.90;;;;;;5011665;28;20608;-50
2021/11/29 10:03:42;;;;;;;3.60;3.30;;;4.90;99.90;;;;;;5011581;28;20180;-48
2021/11/29 10:06:08;;;;;;;4.30;3.50;;;4.90;99.90;;;;;;5026136;28;20258;-52
2021/11/29 10:08:38;;;;;;;4.37;3.70;;;4.90;99.90;;;;;;5031275;28;20214;-49
2021/11/29 10:11:11;;;;;;;3.67;3.23;;;4.90;99.90;;;;;;5026609;28;20233;-48
2021/11/29 10:13:51;;;;;;;3.23;2.93;;;4.90;99.90;;;;;;5031393;28;20179;-46
2021/11/29 10:16:29;;;;;;;3.27;2.97;;;5.00;99.90;;;;;;5030945;28;20259;-46
2021/11/29 10:18:55;;;;;;;3.87;3.10;;;5.00;99.90;;;;;;5031370;28;20180;-43
2021/11/29 10:21:20;;;;;;;4.27;3.00;;;4.90;99.90;;;;;;5031038;28;20325;-46
2021/11/29 10:23:49;;;;;;;3.90;2.60;;;4.90;99.90;;;;;;5031323;28;20172;-50
2021/11/29 10:26:17;;;;;;;3.10;2.80;;;4.90;99.90;;;;;;5030805;28;20215;-47
2021/11/29 10:28:58;;;;;;;4.30;3.00;;;4.90;99.90;;;;;;5031074;28;20200;-48
2021/11/29 10:31:26;;;;;;;3.90;3.50;;;4.90;99.90;;;;;;5031073;28;20261;-51
2021/11/29 10:33:52;;;;;;;3.43;3.13;;;4.80;99.90;;;;;;5027817;28;20195;-52
2021/11/29 10:36:19;;;;;;;3.67;3.17;;;4.70;99.90;;;;;;5001404;28;20255;-52
2021/11/29 10:38:50;;;;;;;3.60;3.30;;;4.70;99.90;;;;;;5007641;28;20188;-52
2021/11/29 10:41:25;;;;;;;4.97;3.57;;;4.60;99.90;;;;;;5011173;28;20671;-48
2021/11/29 10:43:50;;;;;;;4.13;3.70;;;4.50;99.90;;;;;;5010727;28;20670;-49
2021/11/29 10:46:24;;;;;;;4.43;3.63;;;4.40;99.90;;;;;;5010893;28;20264;-49
2021/11/29 10:48:50;;;;;;;4.27;3.87;;;4.30;99.90;;;;;;5011179;28;20215;-46
2021/11/29 10:51:19;;;;;;;4.30;3.67;;;4.30;99.90;;;;;;5008294;28;20277;-45
2021/11/29 10:53:48;;;;;;;3.37;3.07;;;5.40;99.90;;;;;;5010359;28;20176;-42
2021/11/29 10:56:14;;;;;;;3.97;3.20;;;4.20;99.90;;;;;;5010421;28;20676;-49
2021/11/29 10:58:47;;;;;;;3.40;3.10;;;4.10;99.90;;;;;;5011077;28;20169;-52
2021/11/29 11:01:16;;;;;;;3.27;2.97;;;4.10;99.90;;;;;;5010944;28;20196;-47
2021/11/29 11:03:50;;;;;;;3.93;3.27;;;4.00;99.90;;;;;;5011340;28;20164;-48
2021/11/29 11:06:15;;;;;;;3.10;2.80;;;4.00;99.90;;;;;;5010912;28;20717;-49
2021/11/29 11:08:41;;;;;;;3.20;2.90;;;4.00;99.90;;;;;;5009852;28;20229;-52
2021/11/29 11:11:51;;;;;;;3.63;3.10;;;3.90;99.90;;;;;;5014538;28;20670;-50
2021/11/29 11:14:21;;;;;;;3.70;3.17;;;3.90;99.90;;;;;;5010389;28;20777;-52
2021/11/29 11:16:53;;;;;;;3.20;2.90;;;3.90;99.90;;;;;;5014400;28;20247;-46
2021/11/29 11:19:43;;;;;;;3.60;3.13;;;3.90;99.90;;;;;;5014440;28;20624;-52
2021/11/29 11:22:30;;;;;;;4.43;3.47;;;3.80;99.90;;;;;;5014539;28;20176;-51
2021/11/29 11:25:01;;;;;;;4.03;3.50;;;3.90;99.90;;;;;;5014011;28;20172;-53
2021/11/29 11:27:55;;;;;;;4.77;3.87;;;3.80;99.90;;;;;;5014450;28;20539;-51
2021/11/29 11:30:21;;;;;;;3.80;3.20;;;3.80;99.90;;;;;;5003405;28;20220;-52
2021/11/29 11:32:49;;;;;;;3.80;3.40;;;3.80;99.90;;;;;;5014403;28;20168;-52
2021/11/29 11:35:36;;;;;;;4.33;3.37;;;3.70;99.90;;;;;;5013576;28;20211;-53
2021/11/29 11:38:03;;;;;;;3.77;3.20;;;3.80;99.90;;;;;;5014440;28;20527;-49
2021/11/29 11:40:35;;;;;;;3.63;3.20;;;3.70;99.90;;;;;;5014089;28;20726;-48
2021/11/29 11:43:04;;;;;;;3.97;3.53;;;3.70;99.90;;;;;;5011841;28;20259;-51
2021/11/29 11:45:32;;;;;;;3.80;3.40;;;3.70;99.90;;;;;;5013639;28;20300;-52
2021/11/29 11:47:59;;;;;;;6.53;4.10;;;3.70;99.90;;;;;;5013728;28;20175;-48
2021/11/29 11:50:33;;;;;;;4.43;3.90;;;3.60;99.90;;;;;;5013929;28;20196;-49
2021/11/29 11:53:00;;;;;;;5.43;3.47;;;3.60;99.90;;;;;;5013797;28;20183;-50
2021/11/29 11:55:32;;;;;;;4.03;3.47;;;3.70;99.90;;;;;;5013759;28;20171;-49
2021/11/29 11:58:01;;;;;;;5.70;3.90;;;3.70;99.90;;;;;;5013521;28;20172;-51
2021/11/29 12:00:35;;;;;;;4.40;3.60;;;3.70;99.90;;;;;;5013789;28;20239;-49
2021/11/29 12:03:06;;;;;;;3.97;3.57;;;3.70;99.90;;;;;;5013738;28;20169;-51
2021/11/29 12:05:37;;;;;;;3.43;3.13;;;3.70;99.90;;;;;;5013401;28;20156;-45
2021/11/29 12:08:05;;;;;;;3.47;3.17;;;3.80;99.90;;;;;;4996076;28;20172;-44
2021/11/29 12:10:39;;;;;;;3.87;3.23;;;3.80;99.90;;;;;;5013218;28;20642;-42
2021/11/29 12:13:07;;;;;;;4.97;3.67;;;3.80;99.90;;;;;;5013704;28;20255;-44
2021/11/29 12:15:42;;;;;;;4.13;3.40;;;3.80;99.90;;;;;;5013003;28;20640;-43
2021/11/29 12:18:10;;;;;;;4.37;3.30;;;3.80;99.90;;;;;;5013553;28;20156;-43
2021/11/29 12:20:35;;;;;;;3.80;3.20;;;3.90;99.90;;;;;;5012579;28;20203;-47
2021/11/29 12:23:02;;;;;;;4.33;3.57;;;3.90;99.90;;;;;;5013269;28;20169;-46
2021/11/29 12:25:28;;;;;;;3.53;3.23;;;3.90;99.90;;;;;;5013120;28;20271;-43
2021/11/29 12:27:55;;;;;;;3.37;2.90;;;4.00;99.90;;;;;;5013032;28;20252;-44
2021/11/29 12:30:36;;;;;;;3.30;3.00;;;4.00;99.90;;;;;;5013201;28;20208;-43
2021/11/29 12:33:04;;;;;;;3.17;2.87;;;4.10;99.90;;;;;;5013255;28;20161;-43
2021/11/29 12:35:36;;;;;;;2.97;2.67;;;4.20;99.90;;;;;;5012922;28;20252;-43
2021/11/29 12:38:15;;;;;;;3.07;2.60;;;4.30;99.90;;;;;;5013129;28;20191;-44
2021/11/29 12:40:55;;;;;;;3.27;2.90;;;4.40;99.90;;;;;;5013223;28;20200;-50
2021/11/29 12:43:45;;;;;;;3.33;2.90;;;4.40;99.90;;;;;;5012992;28;20168;-48
2021/11/29 12:46:24;;;;;;;3.03;2.77;;;4.50;99.90;;;;;;5012601;28;20164;-47
2021/11/29 12:48:51;;;;;;;2.73;2.50;;;4.50;99.90;;;;;;5013142;28;20198;-47
2021/11/29 12:52:02;;;;;;;2.90;2.60;;;4.40;99.90;;;;;;5012878;28;20242;-42
2021/11/29 12:54:44;;;;;;;3.50;2.70;;;4.40;99.90;;;;;;5006876;28;20253;-50
2021/11/29 12:57:28;;;;;;;3.00;2.57;;;4.40;99.90;;;;;;5012675;28;20168;-50
2021/11/29 12:59:59;;;;;;;2.97;2.67;;;4.40;99.90;;;;;;5012943;28;20188;-52